Terminal Aerodrome Forecast
Issued by NWS

Home | Current Version | Previous Version | Text Only | Print | Product List | Glossary On
Versions: 1 2 3 4 5 6 7 8 9 10 11 12 13 14 15 16
000
FTUS41 KPBZ 020500
TAFBVI
TAF
KBVI 020520Z 0206/0306 27008KT P6SM OVC010
      TEMPO 0206/0210 OVC007
     FM021600 28008KT P6SM BKN025
     FM022300 VRB03KT P6SM SCT250
      AMD NOT SKED=

USA.gov is the U.S. government's official web portal to all federal, state and local government web resources and services.